Time;durP1;ratioP1;P1;durP2;ratioP2;P2;SDS_P1;SDS_P2;PMS_P1;PMS_P2;Temp;Humidity;BMP_temperature;BMP_pressure;BME280_temperature;BME280_humidity;BME280_pressure;Samples;Min_cycle;Max_cycle;Signal;HPM_P1;HPM_P2
2023/10/07 00:00:40;;;;;;;;;;;17.40;99.90;;;;;;5041571;28;19923;-82
2023/10/07 00:03:06;;;;;;;;;;;17.40;99.90;;;;;;5056626;28;19929;-82
2023/10/07 00:05:35;;;;;;;;;;;17.40;99.90;;;;;;5042665;28;19932;-81
2023/10/07 00:08:04;;;;;;;;;;;17.30;99.90;;;;;;5060162;28;19956;-81
2023/10/07 00:10:30;;;;;;;;;;;17.40;99.90;;;;;;5057873;28;20023;-81
2023/10/07 00:13:03;;;;;;;;;;;17.40;99.90;;;;;;5065635;28;19932;-81
2023/10/07 00:15:29;;;;;;;;;;;17.40;99.90;;;;;;5064766;28;19920;-82
2023/10/07 00:18:00;;;;;;;;;;;17.40;99.90;;;;;;5069460;28;19921;-81
2023/10/07 00:20:27;;;;;;;;;;;17.40;99.90;;;;;;5067586;28;19921;-81
2023/10/07 00:22:57;;;;;;;;;;;17.40;99.90;;;;;;5064781;28;19950;-82
2023/10/07 00:25:23;;;;;;;;;;;17.40;99.90;;;;;;5067279;28;19905;-81
2023/10/07 00:27:48;;;;;;;;;;;17.40;99.90;;;;;;5069530;28;19931;-82
2023/10/07 00:30:22;;;;;;;;;;;17.40;99.90;;;;;;5049687;28;19932;-79
2023/10/07 00:32:50;;;;;;;;;;;17.40;99.90;;;;;;5065851;28;19929;-82
2023/10/07 00:35:22;;;;;;;;;;;17.40;99.90;;;;;;5050024;28;20374;-82
2023/10/07 00:37:49;;;;;;;;;;;17.40;99.90;;;;;;5062096;28;19944;-83
2023/10/07 00:40:24;;;;;;;;;;;17.40;99.90;;;;;;5061445;28;19924;-83
2023/10/07 00:42:50;;;;;;;;;;;17.50;99.90;;;;;;5070713;28;19936;-82
2023/10/07 00:45:16;;;;;;;;;;;17.40;99.90;;;;;;5071012;28;19921;-81
2023/10/07 00:47:42;;;;;;;;;;;17.40;99.90;;;;;;5073384;28;19943;-81
2023/10/07 00:50:09;;;;;;;;;;;17.30;99.90;;;;;;5071621;28;19952;-81
2023/10/07 00:52:55;;;;;;;;;;;17.30;99.90;;;;;;5054531;28;19931;-82
2023/10/07 00:55:35;;;;;;;;;;;17.30;99.90;;;;;;5071819;28;19931;-81
2023/10/07 00:58:13;;;;;;;;;;;17.30;99.90;;;;;;5054766;28;19905;-81
2023/10/07 01:03:49;;;;;;;;;;;17.30;99.90;;;;;;5059312;28;19921;-80
2023/10/07 01:13:59;;;;;;;;;;;17.20;99.90;;;;;;5046934;28;20023;-80
2023/10/07 01:16:42;;;;;;;;;;;17.20;99.90;;;;;;5054128;28;20427;-83
2023/10/07 01:21:51;;;;;;;;;;;17.20;99.90;;;;;;5069983;28;19909;-81
2023/10/07 01:24:23;;;;;;;;;;;17.20;99.90;;;;;;5062899;28;20003;-81
2023/10/07 01:26:50;;;;;;;;;;;17.10;99.90;;;;;;5038177;28;19951;-82
2023/10/07 01:29:20;;;;;;;;;;;17.10;99.90;;;;;;5055809;28;20282;-83
2023/10/07 01:32:11;;;;;;;;;;;17.10;99.90;;;;;;5056494;28;19921;-82
2023/10/07 01:34:37;;;;;;;;;;;17.10;99.90;;;;;;5042389;28;19952;-80
2023/10/07 01:37:03;;;;;;;;;;;17.10;99.90;;;;;;5064180;28;19912;-83
2023/10/07 01:39:40;;;;;;;;;;;17.10;99.90;;;;;;5063421;28;19921;-83
2023/10/07 01:42:06;;;;;;;;;;;17.10;99.90;;;;;;5061597;28;19921;-80
2023/10/07 01:44:38;;;;;;;;;;;17.10;99.90;;;;;;5058490;28;19990;-81
2023/10/07 01:47:16;;;;;;;;;;;17.20;99.90;;;;;;5059118;28;20007;-81
2023/10/07 01:49:43;;;;;;;;;;;17.10;99.90;;;;;;5042845;28;19943;-81
2023/10/07 01:52:09;;;;;;;;;;;17.10;99.90;;;;;;5059741;28;19971;-80
2023/10/07 01:54:35;;;;;;;;;;;17.10;99.90;;;;;;5059778;28;19929;-80
2023/10/07 01:57:04;;;;;;;;;;;17.10;99.90;;;;;;5052582;28;20367;-82
2023/10/07 01:59:30;;;;;;;;;;;17.20;99.90;;;;;;5059560;28;20345;-81
2023/10/07 02:02:06;;;;;;;;;;;17.20;99.90;;;;;;5062040;28;19921;-81
2023/10/07 02:04:32;;;;;;;;;;;17.20;99.90;;;;;;5059439;28;19916;-82
2023/10/07 02:06:58;;;;;;;;;;;17.20;99.90;;;;;;5064247;28;19932;-81
2023/10/07 02:09:27;;;;;;;;;;;17.20;99.90;;;;;;5058991;28;19936;-81
2023/10/07 02:11:53;;;;;;;;;;;17.20;99.90;;;;;;5061027;28;20355;-82
2023/10/07 02:14:23;;;;;;;;;;;17.20;99.90;;;;;;5042023;28;20392;-82
2023/10/07 02:16:49;;;;;;;;;;;17.20;99.90;;;;;;5059905;28;19920;-80
2023/10/07 02:19:25;;;;;;;;;;;17.30;99.90;;;;;;5057045;28;19921;-81
2023/10/07 02:21:59;;;;;;;;;;;17.30;99.90;;;;;;5056790;28;19984;-82
2023/10/07 02:24:28;;;;;;;;;;;17.40;99.90;;;;;;5057094;28;19920;-80
2023/10/07 02:26:55;;;;;;;;;;;17.40;99.90;;;;;;5055405;28;19921;-81
2023/10/07 02:29:21;;;;;;;;;;;17.40;99.90;;;;;;5056978;28;19929;-81
2023/10/07 02:31:49;;;;;;;;;;;17.40;99.90;;;;;;5055493;28;19921;-81
2023/10/07 02:34:28;;;;;;;;;;;17.40;99.90;;;;;;5059264;28;19920;-80
2023/10/07 02:37:10;;;;;;;;;;;17.40;99.90;;;;;;5058170;28;19920;-83
2023/10/07 02:39:48;;;;;;;;;;;17.40;99.90;;;;;;5057105;28;19925;-81
2023/10/07 02:42:21;;;;;;;;;;;17.40;99.90;;;;;;5055337;28;19913;-81
2023/10/07 02:44:51;;;;;;;;;;;17.50;99.90;;;;;;5055515;28;20042;-82
2023/10/07 02:47:18;;;;;;;;;;;17.40;99.90;;;;;;5056699;28;19951;-81
2023/10/07 02:49:49;;;;;;;;;;;17.40;99.90;;;;;;5059142;28;19921;-81
2023/10/07 02:52:17;;;;;;;;;;;17.50;99.90;;;;;;5056062;28;19921;-80
2023/10/07 02:54:43;;;;;;;;;;;17.50;99.90;;;;;;5058952;28;19928;-80
2023/10/07 02:57:10;;;;;;;;;;;17.60;99.90;;;;;;5055692;28;20366;-82
2023/10/07 02:59:41;;;;;;;;;;;17.50;99.90;;;;;;5054009;28;19920;-81
2023/10/07 03:02:12;;;;;;;;;;;17.40;99.90;;;;;;5057129;28;20401;-83
2023/10/07 03:04:42;;;;;;;;;;;17.50;99.90;;;;;;5056635;28;19924;-81
2023/10/07 03:07:14;;;;;;;;;;;17.60;99.90;;;;;;5055997;28;20298;-81
2023/10/07 03:09:52;;;;;;;;;;;17.60;99.90;;;;;;5053457;28;19927;-80
2023/10/07 03:12:27;;;;;;;;;;;17.60;99.90;;;;;;5053593;28;19925;-80
2023/10/07 03:15:04;;;;;;;;;;;17.60;99.90;;;;;;5056586;28;20342;-82
2023/10/07 03:17:39;;;;;;;;;;;17.80;99.90;;;;;;5059228;28;20015;-80
2023/10/07 03:28:18;;;;;;;;;;;17.60;99.90;;;;;;5062745;28;19943;-81
2023/10/07 03:31:08;;;;;;;;;;;17.80;99.90;;;;;;5067850;28;19924;-82
2023/10/07 03:33:42;;;;;;;;;;;17.60;99.90;;;;;;5056355;28;19921;-79
2023/10/07 03:36:16;;;;;;;;;;;17.50;99.90;;;;;;5056355;28;20030;-80
2023/10/07 03:38:42;;;;;;;;;;;17.50;99.90;;;;;;5057461;28;20023;-81
2023/10/07 03:41:09;;;;;;;;;;;17.50;99.90;;;;;;5057616;28;19996;-82
2023/10/07 03:43:35;;;;;;;;;;;17.50;99.90;;;;;;5060141;28;19924;-80
2023/10/07 03:46:10;;;;;;;;;;;17.50;99.90;;;;;;5055658;28;19920;-82
2023/10/07 03:48:39;;;;;;;;;;;17.50;99.90;;;;;;5058158;28;19924;-81
2023/10/07 03:51:06;;;;;;;;;;;17.50;99.90;;;;;;5056312;28;20008;-81
2023/10/07 03:53:44;;;;;;;;;;;17.50;99.90;;;;;;5055969;28;20294;-81
2023/10/07 03:56:16;;;;;;;;;;;17.50;99.90;;;;;;5056907;28;19929;-81
2023/10/07 03:58:43;;;;;;;;;;;17.50;99.90;;;;;;5055183;28;19982;-80
2023/10/07 04:01:21;;;;;;;;;;;17.50;99.90;;;;;;5067695;28;19955;-82
2023/10/07 04:03:51;;;;;;;;;;;17.50;99.90;;;;;;5052091;28;19925;-80
2023/10/07 04:06:17;;;;;;;;;;;17.50;99.90;;;;;;5054327;28;20381;-81
2023/10/07 04:08:52;;;;;;;;;;;17.50;99.90;;;;;;5040937;28;19921;-82
2023/10/07 04:11:19;;;;;;;;;;;17.50;99.90;;;;;;5056102;28;19946;-81
2023/10/07 04:13:45;;;;;;;;;;;17.50;99.90;;;;;;5054511;28;19921;-80
2023/10/07 04:16:24;;;;;;;;;;;17.50;99.90;;;;;;5056952;28;19925;-81
2023/10/07 04:18:53;;;;;;;;;;;17.50;99.90;;;;;;5056689;28;19924;-81
2023/10/07 04:21:24;;;;;;;;;;;17.50;99.90;;;;;;5054530;28;20028;-80
2023/10/07 04:23:50;;;;;;;;;;;17.50;99.90;;;;;;5055531;28;19972;-80
2023/10/07 04:26:21;;;;;;;;;;;17.40;99.90;;;;;;5063933;28;19924;-81
2023/10/07 04:28:48;;;;;;;;;;;17.50;99.90;;;;;;5063278;28;19924;-82
2023/10/07 04:31:17;;;;;;;;;;;17.50;99.90;;;;;;5055915;28;19931;-81
2023/10/07 04:33:48;;;;;;;;;;;17.50;99.90;;;;;;5060675;28;19935;-81
2023/10/07 04:36:14;;;;;;;;;;;17.40;99.90;;;;;;5043042;28;19920;-80
2023/10/07 04:38:53;;;;;;;;;;;17.40;99.90;;;;;;5061501;28;19920;-81
2023/10/07 04:43:55;;;;;;;;;;;17.50;99.90;;;;;;5065465;28;19931;-81
2023/10/07 04:46:23;;;;;;;;;;;17.50;99.90;;;;;;5048617;28;19960;-80
2023/10/07 04:48:55;;;;;;;;;;;17.40;99.90;;;;;;5051472;28;19928;-80
2023/10/07 04:51:46;;;;;;;;;;;17.50;99.90;;;;;;5050435;28;19929;-81
2023/10/07 04:54:11;;;;;;;;;;;17.40;99.90;;;;;;5060861;28;19932;-80
2023/10/07 04:56:40;;;;;;;;;;;17.40;99.90;;;;;;5070935;28;19927;-80
2023/10/07 04:59:06;;;;;;;;;;;17.40;99.90;;;;;;5071053;28;19959;-82
2023/10/07 05:01:33;;;;;;;;;;;17.40;99.90;;;;;;5067833;28;19921;-81
2023/10/07 05:04:08;;;;;;;;;;;17.40;99.90;;;;;;5064752;28;20394;-81
2023/10/07 05:06:35;;;;;;;;;;;17.40;99.90;;;;;;5059290;28;19917;-81
2023/10/07 05:09:03;;;;;;;;;;;17.40;99.90;;;;;;5057727;28;20291;-80
2023/10/07 05:11:29;;;;;;;;;;;17.40;99.90;;;;;;5062443;28;19954;-82
2023/10/07 05:13:55;;;;;;;;;;;17.40;99.90;;;;;;5052536;28;19927;-81
2023/10/07 05:16:22;;;;;;;;;;;17.50;99.90;;;;;;5065058;28;19920;-81
2023/10/07 05:18:48;;;;;;;;;;;17.40;99.90;;;;;;5043879;28;19927;-81
2023/10/07 05:21:16;;;;;;;;;;;17.40;99.90;;;;;;5041839;28;19921;-80
2023/10/07 05:23:41;;;;;;;;;;;17.40;99.90;;;;;;5059803;28;19967;-82
2023/10/07 05:26:09;;;;;;;;;;;17.40;99.90;;;;;;5060078;28;19921;-81
2023/10/07 05:28:35;;;;;;;;;;;17.40;99.90;;;;;;5058921;28;19927;-80
2023/10/07 05:31:03;;;;;;;;;;;17.40;99.90;;;;;;5063199;28;19928;-81
2023/10/07 05:33:32;;;;;;;;;;;17.40;99.90;;;;;;5071499;28;19924;-80
2023/10/07 05:35:58;;;;;;;;;;;17.40;99.90;;;;;;5070076;28;20066;-79
2023/10/07 05:38:26;;;;;;;;;;;17.40;99.90;;;;;;5051461;28;19928;-82
2023/10/07 05:40:52;;;;;;;;;;;17.30;99.90;;;;;;5059798;28;19930;-81
2023/10/07 05:43:18;;;;;;;;;;;17.40;99.90;;;;;;5052688;28;20019;-81
2023/10/07 05:45:45;;;;;;;;;;;17.40;99.90;;;;;;5055865;28;20003;-81
2023/10/07 05:48:11;;;;;;;;;;;17.40;99.90;;;;;;5062324;28;19921;-82
2023/10/07 05:50:39;;;;;;;;;;;17.40;99.90;;;;;;5059360;28;19908;-82
2023/10/07 05:53:05;;;;;;;;;;;17.30;99.90;;;;;;5056111;28;19920;-82
2023/10/07 05:55:33;;;;;;;;;;;17.40;99.90;;;;;;5060775;28;19920;-79
2023/10/07 05:57:59;;;;;;;;;;;17.30;99.90;;;;;;5062397;28;19924;-82
2023/10/07 06:00:25;;;;;;;;;;;17.30;99.90;;;;;;5059338;28;19921;-81
2023/10/07 06:02:53;;;;;;;;;;;17.30;99.90;;;;;;5056434;28;19921;-81
2023/10/07 06:05:20;;;;;;;;;;;17.30;99.90;;;;;;5056440;28;20379;-82
2023/10/07 06:07:46;;;;;;;;;;;17.30;99.90;;;;;;5056535;28;19984;-80
2023/10/07 06:10:12;;;;;;;;;;;17.20;99.90;;;;;;5055964;28;19967;-80
2023/10/07 06:12:37;;;;;;;;;;;17.20;99.90;;;;;;5060816;28;19921;-80
2023/10/07 06:15:10;;;;;;;;;;;17.20;99.90;;;;;;5062770;28;19932;-82
2023/10/07 06:17:36;;;;;;;;;;;17.20;99.90;;;;;;5063847;28;19920;-81
2023/10/07 06:20:15;;;;;;;;;;;17.20;99.90;;;;;;5060510;28;19943;-81
2023/10/07 06:22:45;;;;;;;;;;;17.10;99.90;;;;;;5060778;28;19919;-81
2023/10/07 06:25:16;;;;;;;;;;;17.10;99.90;;;;;;5060217;28;19984;-79
2023/10/07 06:27:44;;;;;;;;;;;17.10;99.90;;;;;;5050696;28;20374;-81
2023/10/07 06:30:11;;;;;;;;;;;17.10;99.90;;;;;;5059158;28;19933;-83
2023/10/07 06:32:50;;;;;;;;;;;17.10;99.90;;;;;;5061739;28;19920;-81
2023/10/07 06:35:21;;;;;;;;;;;17.10;99.90;;;;;;5058520;28;19920;-82
2023/10/07 06:37:46;;;;;;;;;;;17.10;99.90;;;;;;5058113;28;20272;-83
2023/10/07 06:40:45;;;;;;;;;;;17.10;99.90;;;;;;5058087;28;19923;-82
2023/10/07 06:43:04;;;;;;;;;;;17.10;99.90;;;;;;5055614;28;19971;-80
2023/10/07 06:45:35;;;;;;;;;;;17.10;99.90;;;;;;5058421;28;19925;-81
2023/10/07 06:48:06;;;;;;;;;;;17.10;99.90;;;;;;5051818;28;20294;-82
2023/10/07 06:50:34;;;;;;;;;;;17.10;99.90;;;;;;5056636;28;20338;-83
2023/10/07 06:53:00;;;;;;;;;;;17.10;99.90;;;;;;5051230;28;19921;-82
2023/10/07 06:55:26;;;;;;;;;;;17.10;99.90;;;;;;5057823;28;19925;-82
2023/10/07 06:57:56;;;;;;;;;;;17.10;99.90;;;;;;5060160;28;19921;-81
2023/10/07 07:00:27;;;;;;;;;;;17.10;99.90;;;;;;5056950;28;21782;-81
2023/10/07 07:02:59;;;;;;;;;;;17.10;99.90;;;;;;5058188;28;19938;-82
2023/10/07 07:05:25;;;;;;;;;;;17.10;99.90;;;;;;5057799;28;19927;-81
2023/10/07 07:07:54;;;;;;;;;;;17.10;99.90;;;;;;5055407;28;19992;-81
2023/10/07 07:10:27;;;;;;;;;;;17.10;99.90;;;;;;5041901;28;20320;-82
2023/10/07 07:12:59;;;;;;;;;;;17.20;99.90;;;;;;5057708;28;19925;-81
2023/10/07 07:15:29;;;;;;;;;;;17.20;99.90;;;;;;5043436;28;19960;-82
2023/10/07 07:23:39;;;;;;;;;;;17.20;99.90;;;;;;5059704;28;19936;-85
2023/10/07 07:26:11;;;;;;;;;;;17.30;99.90;;;;;;5060343;28;19921;-82
2023/10/07 07:28:44;;;;;;;;;;;17.30;99.90;;;;;;5061772;28;19924;-82
2023/10/07 07:31:19;;;;;;;;;;;17.20;99.90;;;;;;5063510;28;19920;-83
2023/10/07 07:33:48;;;;;;;;;;;17.20;99.90;;;;;;5062648;28;19921;-82
2023/10/07 07:36:37;;;;;;;;;;;17.20;99.90;;;;;;5062013;28;19921;-84
2023/10/07 07:39:10;;;;;;;;;;;17.30;99.90;;;;;;5074246;28;19927;-81
2023/10/07 07:41:38;;;;;;;;;;;17.30;99.90;;;;;;5051940;28;19925;-82
2023/10/07 07:44:10;;;;;;;;;;;17.30;99.90;;;;;;5061975;28;19966;-83
2023/10/07 07:46:54;;;;;;;;;;;17.30;99.90;;;;;;5067639;28;19943;-81
2023/10/07 07:49:20;;;;;;;;;;;17.40;99.90;;;;;;5066828;28;19931;-82
2023/10/07 07:51:51;;;;;;;;;;;17.40;99.90;;;;;;5065951;28;19916;-84
2023/10/07 07:54:17;;;;;;;;;;;17.40;99.90;;;;;;5042895;28;19925;-83
2023/10/07 07:56:45;;;;;;;;;;;17.40;99.90;;;;;;5060263;28;19927;-82
2023/10/07 07:59:14;;;;;;;;;;;17.50;99.90;;;;;;5059081;28;19920;-84
2023/10/07 08:01:50;;;;;;;;;;;17.70;99.90;;;;;;5060062;28;19955;-84
2023/10/07 08:05:02;;;;;;;;;;;17.60;99.90;;;;;;5059350;28;19916;-84
2023/10/07 08:07:18;;;;;;;;;;;17.70;99.90;;;;;;5051705;28;19921;-81
2023/10/07 08:09:50;;;;;;;;;;;17.70;99.90;;;;;;5062714;28;20015;-83
2023/10/07 08:12:44;;;;;;;;;;;17.80;99.90;;;;;;5059104;28;19925;-83
2023/10/07 08:17:40;;;;;;;;;;;17.90;99.90;;;;;;5062321;28;19905;-85
2023/10/07 08:20:12;;;;;;;;;;;17.90;99.90;;;;;;5062750;28;19928;-83
2023/10/07 08:22:52;;;;;;;;;;;17.90;99.90;;;;;;5061452;28;19921;-80
2023/10/07 08:25:37;;;;;;;;;;;17.90;99.90;;;;;;5063816;28;19925;-84
2023/10/07 08:28:18;;;;;;;;;;;17.90;99.90;;;;;;5067319;28;19909;-80
2023/10/07 08:30:46;;;;;;;;;;;18.00;99.90;;;;;;5069044;28;19986;-83
2023/10/07 08:33:14;;;;;;;;;;;18.00;99.90;;;;;;5066467;28;19955;-82
2023/10/07 08:35:43;;;;;;;;;;;18.00;99.90;;;;;;5069812;28;19925;-80
2023/10/07 08:41:07;;;;;;;;;;;18.00;99.90;;;;;;5068648;28;19928;-79
2023/10/07 08:43:44;;;;;;;;;;;18.00;99.90;;;;;;5070651;28;19951;-79
2023/10/07 08:46:12;;;;;;;;;;;18.10;99.90;;;;;;5066885;28;19920;-82
2023/10/07 08:48:42;;;;;;;;;;;18.10;99.90;;;;;;5079134;28;19921;-80
2023/10/07 08:51:14;;;;;;;;;;;18.10;99.90;;;;;;5079130;28;19920;-81
2023/10/07 08:53:40;;;;;;;;;;;18.20;99.90;;;;;;5078241;28;19921;-83
2023/10/07 08:56:09;;;;;;;;;;;18.20;99.90;;;;;;5066805;28;19925;-81
2023/10/07 08:58:38;;;;;;;;;;;18.20;99.90;;;;;;5062194;28;19975;-81
2023/10/07 09:01:07;;;;;;;;;;;18.20;99.90;;;;;;5057906;28;20351;-82
2023/10/07 09:03:38;;;;;;;;;;;18.20;99.90;;;;;;5052746;28;19929;-81
2023/10/07 09:06:06;;;;;;;;;;;18.20;99.90;;;;;;5074320;28;19928;-82
2023/10/07 09:08:33;;;;;;;;;;;18.20;99.90;;;;;;5060073;28;19960;-85
2023/10/07 09:10:59;;;;;;;;;;;18.10;99.90;;;;;;5059151;28;19998;-83
2023/10/07 09:13:31;;;;;;;;;;;18.10;99.90;;;;;;5056774;28;20027;-81
2023/10/07 09:15:59;;;;;;;;;;;18.10;99.90;;;;;;5058411;28;19944;-81
2023/10/07 09:18:29;;;;;;;;;;;18.20;99.90;;;;;;5061132;28;19921;-83
2023/10/07 09:20:56;;;;;;;;;;;18.20;99.90;;;;;;5061568;28;19947;-82
2023/10/07 09:23:43;;;;;;;;;;;18.30;99.90;;;;;;5062573;28;19978;-81
2023/10/07 09:26:21;;;;;;;;;;;18.20;99.90;;;;;;5062993;28;19925;-83
2023/10/07 09:29:03;;;;;;;;;;;18.20;99.90;;;;;;5061986;28;20011;-81
2023/10/07 09:31:30;;;;;;;;;;;18.30;99.90;;;;;;5062018;28;19921;-81
2023/10/07 09:34:09;;;;;;;;;;;18.20;99.90;;;;;;5067920;28;19927;-82
2023/10/07 09:36:40;;;;;;;;;;;18.30;99.90;;;;;;5067534;28;19952;-83
2023/10/07 09:41:38;;;;;;;;;;;18.20;99.90;;;;;;5072090;28;19934;-82
2023/10/07 09:44:12;;;;;;;;;;;18.30;99.90;;;;;;5070696;28;19921;-80
2023/10/07 09:46:41;;;;;;;;;;;18.20;99.90;;;;;;5074437;28;19971;-81
2023/10/07 09:49:07;;;;;;;;;;;18.20;99.90;;;;;;5074748;28;19928;-80
2023/10/07 09:51:44;;;;;;;;;;;18.20;99.90;;;;;;5075272;28;19921;-81
2023/10/07 09:54:16;;;;;;;;;;;18.20;99.90;;;;;;5070378;28;19936;-80
2023/10/07 09:56:59;;;;;;;;;;;18.20;99.90;;;;;;5070312;28;19921;-82
2023/10/07 09:59:44;;;;;;;;;;;18.20;99.90;;;;;;5074107;28;20387;-83
2023/10/07 10:02:16;;;;;;;;;;;18.20;99.90;;;;;;5059913;28;19928;-81
2023/10/07 10:04:52;;;;;;;;;;;18.20;99.90;;;;;;5071066;28;19916;-82
2023/10/07 10:07:22;;;;;;;;;;;18.20;99.90;;;;;;5053551;28;19909;-84
2023/10/07 10:10:31;;;;;;;;;;;18.20;99.90;;;;;;5073654;28;19988;-82
2023/10/07 10:17:53;;;;;;;;;;;18.30;99.90;;;;;;5068374;28;19933;-80
2023/10/07 10:20:27;;;;;;;;;;;18.30;99.90;;;;;;5067595;28;19925;-81
2023/10/07 10:22:53;;;;;;;;;;;18.40;99.90;;;;;;5070844;28;19921;-82
2023/10/07 10:25:43;;;;;;;;;;;18.40;99.90;;;;;;5071894;28;19931;-83
2023/10/07 10:28:10;;;;;;;;;;;18.40;99.90;;;;;;5067212;28;19925;-83
2023/10/07 10:30:53;;;;;;;;;;;18.50;99.90;;;;;;5069905;28;19924;-82
2023/10/07 10:33:28;;;;;;;;;;;18.50;99.90;;;;;;5065522;28;19935;-82
2023/10/07 10:36:00;;;;;;;;;;;18.50;99.90;;;;;;5049023;28;19979;-79
2023/10/07 10:38:38;;;;;;;;;;;18.50;99.90;;;;;;5069701;28;19936;-81
2023/10/07 10:41:04;;;;;;;;;;;18.60;99.90;;;;;;5050641;28;19931;-80
2023/10/07 10:43:32;;;;;;;;;;;18.70;99.90;;;;;;5068861;28;20117;-82
2023/10/07 10:46:05;;;;;;;;;;;18.60;99.90;;;;;;5068317;28;19920;-81
2023/10/07 10:48:31;;;;;;;;;;;18.70;99.90;;;;;;5063345;28;19925;-81
2023/10/07 10:50:59;;;;;;;;;;;18.60;99.90;;;;;;5069559;28;19921;-81
2023/10/07 10:53:27;;;;;;;;;;;18.70;99.90;;;;;;5049953;28;19927;-82
2023/10/07 10:55:54;;;;;;;;;;;18.70;99.90;;;;;;5027092;28;19909;-82
2023/10/07 10:58:19;;;;;;;;;;;18.80;99.90;;;;;;5066054;28;19932;-81
2023/10/07 11:00:49;;;;;;;;;;;18.70;99.90;;;;;;5061752;28;19929;-80
2023/10/07 11:03:23;;;;;;;;;;;18.70;99.90;;;;;;5061209;28;20024;-82
2023/10/07 11:05:53;;;;;;;;;;;18.70;99.90;;;;;;5043663;28;19927;-82
2023/10/07 11:08:22;;;;;;;;;;;18.60;99.90;;;;;;5063198;28;19960;-80
2023/10/07 11:10:50;;;;;;;;;;;18.60;99.90;;;;;;5058281;28;20000;-83
2023/10/07 11:13:16;;;;;;;;;;;18.60;99.90;;;;;;5062114;28;19924;-82
2023/10/07 11:15:52;;;;;;;;;;;18.50;99.90;;;;;;5057625;28;19951;-82
2023/10/07 11:18:18;;;;;;;;;;;18.50;99.90;;;;;;5057882;28;19943;-82
2023/10/07 11:20:45;;;;;;;;;;;18.40;99.90;;;;;;5065430;28;19921;-85
2023/10/07 11:23:15;;;;;;;;;;;18.50;99.90;;;;;;5059922;28;19921;-81
2023/10/07 11:25:41;;;;;;;;;;;18.50;99.90;;;;;;5054908;28;19964;-83
2023/10/07 11:28:09;;;;;;;;;;;18.50;99.90;;;;;;5058196;28;19920;-81
2023/10/07 11:30:47;;;;;;;;;;;18.40;99.90;;;;;;5040670;28;19963;-82
2023/10/07 11:33:16;;;;;;;;;;;18.40;99.90;;;;;;5057012;28;19921;-83
2023/10/07 11:35:42;;;;;;;;;;;18.40;99.90;;;;;;5059138;28;19921;-81
2023/10/07 11:38:11;;;;;;;;;;;18.40;99.90;;;;;;5061586;28;19925;-83
2023/10/07 11:40:37;;;;;;;;;;;18.40;99.90;;;;;;5053397;28;19975;-82
2023/10/07 11:43:08;;;;;;;;;;;18.30;99.90;;;;;;5056363;28;19921;-81
2023/10/07 11:45:35;;;;;;;;;;;18.30;99.90;;;;;;5059771;28;19920;-83
2023/10/07 11:48:03;;;;;;;;;;;18.30;99.90;;;;;;5069189;28;19909;-83
2023/10/07 11:50:31;;;;;;;;;;;18.40;99.90;;;;;;5072440;28;19971;-82
2023/10/07 11:53:00;;;;;;;;;;;18.40;99.90;;;;;;5048038;28;19927;-85
2023/10/07 11:55:31;;;;;;;;;;;18.40;99.90;;;;;;5045032;28;19970;-82
2023/10/07 11:58:00;;;;;;;;;;;18.50;99.90;;;;;;5055798;28;20324;-80
2023/10/07 12:00:31;;;;;;;;;;;18.50;99.90;;;;;;5052054;28;20015;-80
2023/10/07 12:02:57;;;;;;;;;;;18.50;99.90;;;;;;5058372;28;19924;-82
2023/10/07 12:05:30;;;;;;;;;;;18.60;99.90;;;;;;5056480;28;19952;-81
2023/10/07 12:07:56;;;;;;;;;;;18.50;99.90;;;;;;5058249;28;19920;-81
2023/10/07 12:10:22;;;;;;;;;;;18.50;99.90;;;;;;5054515;28;19944;-82
2023/10/07 12:12:49;;;;;;;;;;;18.40;99.90;;;;;;5054711;28;20010;-83
2023/10/07 12:15:21;;;;;;;;;;;18.40;99.90;;;;;;5055330;28;20057;-80
2023/10/07 12:17:49;;;;;;;;;;;18.40;99.90;;;;;;5053060;28;20015;-81
2023/10/07 12:20:15;;;;;;;;;;;18.40;99.90;;;;;;5056281;28;19966;-83
2023/10/07 12:22:44;;;;;;;;;;;18.30;99.90;;;;;;5042791;28;19909;-81
2023/10/07 12:25:30;;;;;;;;;;;18.30;99.90;;;;;;5063594;28;19921;-81
2023/10/07 12:27:56;;;;;;;;;;;18.30;99.90;;;;;;5064416;28;19987;-83
2023/10/07 12:30:22;;;;;;;;;;;18.30;99.90;;;;;;5069316;28;19959;-82
2023/10/07 12:32:48;;;;;;;;;;;18.40;99.90;;;;;;5068884;28;19952;-80
2023/10/07 12:35:15;;;;;;;;;;;18.30;99.90;;;;;;5067986;28;19925;-82
2023/10/07 12:37:46;;;;;;;;;;;18.30;99.90;;;;;;5068585;28;19950;-83
2023/10/07 12:40:17;;;;;;;;;;;18.40;99.90;;;;;;5073199;28;19920;-83
2023/10/07 12:42:43;;;;;;;;;;;18.40;99.90;;;;;;5063243;28;19921;-80
2023/10/07 12:45:10;;;;;;;;;;;18.40;99.90;;;;;;5053651;28;19931;-81
2023/10/07 12:47:39;;;;;;;;;;;18.40;99.90;;;;;;5062858;28;19916;-81
2023/10/07 12:50:23;;;;;;;;;;;18.40;99.90;;;;;;5062321;28;19909;-81
2023/10/07 12:52:50;;;;;;;;;;;18.40;99.90;;;;;;5052750;28;20340;-81
2023/10/07 12:55:16;;;;;;;;;;;18.40;99.90;;;;;;5056718;28;19920;-84
2023/10/07 12:57:42;;;;;;;;;;;18.40;99.90;;;;;;5052061;28;19932;-83
2023/10/07 13:00:19;;;;;;;;;;;18.40;99.90;;;;;;5053716;28;19917;-84
2023/10/07 13:02:52;;;;;;;;;;;18.30;99.90;;;;;;5052523;28;19921;-83
2023/10/07 13:05:18;;;;;;;;;;;18.30;99.90;;;;;;5043448;28;19944;-81
2023/10/07 13:07:47;;;;;;;;;;;18.30;99.90;;;;;;5043213;28;19924;-80
2023/10/07 13:10:13;;;;;;;;;;;18.30;99.90;;;;;;5055568;28;19928;-81
2023/10/07 13:12:39;;;;;;;;;;;18.30;99.90;;;;;;5036829;28;19924;-81
2023/10/07 13:15:14;;;;;;;;;;;18.30;99.90;;;;;;5054106;28;19984;-84
2023/10/07 13:17:45;;;;;;;;;;;18.20;99.90;;;;;;5054129;28;20093;-83
2023/10/07 13:20:12;;;;;;;;;;;18.20;99.90;;;;;;5055641;28;19921;-82
2023/10/07 13:22:38;;;;;;;;;;;18.10;99.90;;;;;;5056954;28;19921;-83
2023/10/07 13:25:04;;;;;;;;;;;18.20;99.90;;;;;;5045577;28;19921;-82
2023/10/07 13:27:29;;;;;;;;;;;18.10;99.90;;;;;;5052559;28;19943;-82
2023/10/07 13:29:55;;;;;;;;;;;18.20;99.90;;;;;;5055953;28;19921;-81
2023/10/07 13:32:21;;;;;;;;;;;18.10;99.90;;;;;;5057954;28;19921;-82
2023/10/07 13:34:46;;;;;;;;;;;18.10;99.90;;;;;;5056119;28;19925;-80
2023/10/07 13:37:12;;;;;;;;;;;18.10;99.90;;;;;;5058485;28;19928;-83
2023/10/07 13:39:40;;;;;;;;;;;18.00;99.90;;;;;;5056481;28;19920;-82
2023/10/07 13:42:09;;;;;;;;;;;18.00;99.90;;;;;;5060235;28;20337;-83
2023/10/07 13:44:35;;;;;;;;;;;18.00;99.90;;;;;;5062300;28;19933;-83
2023/10/07 13:47:01;;;;;;;;;;;18.00;99.90;;;;;;5063761;28;19967;-81
2023/10/07 13:49:27;;;;;;;;;;;17.90;99.90;;;;;;5064354;28;19921;-81
2023/10/07 13:51:56;;;;;;;;;;;18.00;99.90;;;;;;5066105;28;20038;-83
2023/10/07 13:54:22;;;;;;;;;;;17.90;99.90;;;;;;5064507;28;19996;-84
2023/10/07 13:56:53;;;;;;;;;;;17.90;99.90;;;;;;5066117;28;19935;-81
2023/10/07 13:59:19;;;;;;;;;;;17.90;99.90;;;;;;5062410;28;19996;-83
2023/10/07 14:01:46;;;;;;;;;;;17.90;99.90;;;;;;5074055;28;19908;-82
2023/10/07 14:04:19;;;;;;;;;;;17.90;99.90;;;;;;5071828;28;19940;-83
2023/10/07 14:06:45;;;;;;;;;;;17.90;99.90;;;;;;5070973;28;19924;-83
2023/10/07 14:09:24;;;;;;;;;;;17.80;99.90;;;;;;5070414;28;19932;-81
2023/10/07 14:11:54;;;;;;;;;;;17.80;99.90;;;;;;5067835;28;20430;-81
2023/10/07 14:14:20;;;;;;;;;;;17.80;99.90;;;;;;5070641;28;19929;-82
2023/10/07 14:16:46;;;;;;;;;;;17.80;99.90;;;;;;5051122;28;19927;-82
2023/10/07 14:19:13;;;;;;;;;;;17.80;99.90;;;;;;5068640;28;19929;-81
2023/10/07 14:21:39;;;;;;;;;;;17.80;99.90;;;;;;5069414;28;19924;-81
2023/10/07 14:24:08;;;;;;;;;;;17.70;99.90;;;;;;5050624;28;19920;-83
2023/10/07 14:26:34;;;;;;;;;;;17.70;99.90;;;;;;5060301;28;19924;-82
2023/10/07 14:29:07;;;;;;;;;;;17.70;99.90;;;;;;5064033;28;20323;-83
2023/10/07 14:31:43;;;;;;;;;;;17.60;99.90;;;;;;5064803;28;20076;-83
2023/10/07 14:34:11;;;;;;;;;;;17.70;99.90;;;;;;5067631;28;19925;-82
2023/10/07 14:36:39;;;;;;;;;;;17.70;99.90;;;;;;5059033;28;19943;-82
2023/10/07 14:39:10;;;;;;;;;;;17.70;99.90;;;;;;5061689;28;19921;-80
2023/10/07 14:41:36;;;;;;;;;;;17.70;99.90;;;;;;5063563;28;20019;-82
2023/10/07 14:44:03;;;;;;;;;;;17.70;99.90;;;;;;5059444;28;19968;-83
2023/10/07 14:46:29;;;;;;;;;;;17.70;99.90;;;;;;5062977;28;20031;-82
2023/10/07 14:48:56;;;;;;;;;;;17.70;99.90;;;;;;5041106;28;19942;-84
2023/10/07 14:51:22;;;;;;;;;;;17.60;99.90;;;;;;5061310;28;19976;-81
2023/10/07 14:53:48;;;;;;;;;;;17.70;99.90;;;;;;5045936;28;19932;-82
2023/10/07 14:56:16;;;;;;;;;;;17.70;99.90;;;;;;5061642;28;20411;-81
2023/10/07 14:58:41;;;;;;;;;;;17.70;99.90;;;;;;5057070;28;20017;-84
2023/10/07 15:01:09;;;;;;;;;;;18.00;99.90;;;;;;5040972;28;19929;-83
2023/10/07 15:03:35;;;;;;;;;;;17.70;99.90;;;;;;5056870;28;19952;-84
2023/10/07 15:06:07;;;;;;;;;;;17.60;99.90;;;;;;5060681;28;19924;-83
2023/10/07 15:08:35;;;;;;;;;;;17.70;99.90;;;;;;5057420;28;19958;-81
2023/10/07 15:11:00;;;;;;;;;;;17.70;99.90;;;;;;5059232;28;19943;-84
2023/10/07 15:13:26;;;;;;;;;;;17.70;99.90;;;;;;5060352;28;19920;-80
2023/10/07 15:15:53;;;;;;;;;;;17.70;99.90;;;;;;5053500;28;19983;-79